createdAt,value
2019-02-17T00:01:27.976Z,48.70
2019-02-17T00:04:43.584Z,48.70
2019-02-17T00:07:28.089Z,48.80
2019-02-17T00:10:11.680Z,49.00
2019-02-17T00:12:47.709Z,49.10
2019-02-17T00:15:23.315Z,49.30
2019-02-17T00:17:54.567Z,49.40
2019-02-17T00:20:37.774Z,49.40
2019-02-17T00:23:18.923Z,49.50
2019-02-17T00:26:00.610Z,49.60
2019-02-17T00:28:31.277Z,49.70
2019-02-17T00:31:04.481Z,49.60
2019-02-17T00:33:41.494Z,49.60
2019-02-17T00:36:16.331Z,49.70
2019-02-17T00:39:10.217Z,49.80
2019-02-17T00:43:00.234Z,50.00
2019-02-17T00:45:43.631Z,50.20
2019-02-17T00:48:50.204Z,50.20
2019-02-17T00:51:28.049Z,50.10
2019-02-17T00:54:02.966Z,50.20
2019-02-17T00:56:43.817Z,50.30
2019-02-17T00:59:25.130Z,50.40
2019-02-17T01:02:12.597Z,50.40
2019-02-17T01:04:45.492Z,50.60
2019-02-17T01:07:24.438Z,50.60
2019-02-17T01:10:14.461Z,50.60
2019-02-17T01:15:51.227Z,50.90
2019-02-17T01:18:28.568Z,50.80
2019-02-17T01:21:04.363Z,51.10
2019-02-17T01:23:46.319Z,51.00
2019-02-17T01:26:16.785Z,51.10
2019-02-17T01:28:50.255Z,51.20
2019-02-17T01:31:23.800Z,51.20
2019-02-17T01:34:02.171Z,51.30
2019-02-17T01:36:40.509Z,51.50
2019-02-17T01:39:12.841Z,51.50
2019-02-17T01:41:53.863Z,51.50
2019-02-17T01:44:30.863Z,51.60
2019-02-17T01:47:08.177Z,51.60
2019-02-17T01:49:44.163Z,51.60
2019-02-17T01:52:18.326Z,51.80
2019-02-17T01:54:50.884Z,51.80
2019-02-17T01:57:23.144Z,51.90
2019-02-17T01:59:55.501Z,52.00
2019-02-17T02:02:28.941Z,51.90
2019-02-17T02:05:02.705Z,52.00
2019-02-17T02:07:33.718Z,52.00
2019-02-17T02:10:04.731Z,52.00
2019-02-17T02:12:35.835Z,52.20
2019-02-17T02:15:07.636Z,52.20
2019-02-17T02:17:38.498Z,52.30
2019-02-17T02:20:13.459Z,52.30
2019-02-17T02:22:44.408Z,52.40
2019-02-17T02:25:16.362Z,52.30
2019-02-17T02:27:48.181Z,52.70
2019-02-17T02:30:20.810Z,52.40
2019-02-17T02:32:52.040Z,52.50
2019-02-17T02:35:22.694Z,52.50
2019-02-17T02:37:54.035Z,52.50
2019-02-17T02:40:24.829Z,52.60
2019-02-17T02:42:55.652Z,52.60
2019-02-17T02:45:26.845Z,52.60
2019-02-17T02:48:00.126Z,52.70
2019-02-17T02:50:30.527Z,52.70
2019-02-17T02:53:01.666Z,52.80
2019-02-17T02:55:32.650Z,52.90
2019-02-17T02:58:05.938Z,52.90
2019-02-17T03:00:36.922Z,52.90
2019-02-17T03:03:07.774Z,53.00
2019-02-17T03:05:44.592Z,53.00
2019-02-17T03:08:17.568Z,53.10
2019-02-17T03:10:49.909Z,53.10
2019-02-17T03:13:24.021Z,53.20
2019-02-17T03:15:57.040Z,53.30
2019-02-17T03:18:27.780Z,53.30
2019-02-17T03:20:58.595Z,53.50
2019-02-17T03:23:30.570Z,53.50
2019-02-17T03:26:01.877Z,53.60
2019-02-17T03:28:40.222Z,53.50
2019-02-17T03:31:11.618Z,53.50
2019-02-17T03:33:42.815Z,53.50
2019-02-17T03:36:13.919Z,53.50
2019-02-17T03:38:45.598Z,53.50
2019-02-17T03:41:17.854Z,53.70
2019-02-17T03:43:49.096Z,53.80
2019-02-17T03:46:20.131Z,53.90
2019-02-17T03:48:51.027Z,53.90
2019-02-17T03:51:22.054Z,54.00
2019-02-17T03:53:56.482Z,54.10
2019-02-17T03:56:28.507Z,54.20
2019-02-17T03:59:00.006Z,54.20
2019-02-17T04:01:32.797Z,54.20
2019-02-17T04:04:05.820Z,54.20
2019-02-17T04:06:37.277Z,54.30
2019-02-17T04:09:10.009Z,54.20
2019-02-17T04:11:41.570Z,54.40
2019-02-17T04:14:15.237Z,54.50
2019-02-17T04:16:50.967Z,54.40
2019-02-17T04:19:21.693Z,54.40
2019-02-17T04:22:02.797Z,54.60
2019-02-17T04:24:39.612Z,54.60
2019-02-17T04:27:11.356Z,54.60
2019-02-17T04:29:43.812Z,54.60
2019-02-17T04:32:15.604Z,54.70
2019-02-17T04:34:46.458Z,54.80
2019-02-17T04:37:17.603Z,54.80
2019-02-17T04:39:54.964Z,54.90
2019-02-17T04:42:21.652Z,55.00
2019-02-17T04:44:52.710Z,55.00
2019-02-17T04:47:24.557Z,55.00
2019-02-17T04:49:55.977Z,55.20
2019-02-17T04:52:27.540Z,55.20
2019-02-17T04:54:58.265Z,55.40
2019-02-17T04:57:31.048Z,55.40
2019-02-17T05:00:05.514Z,55.40
2019-02-17T05:02:38.539Z,55.50
2019-02-17T05:05:11.896Z,55.50
2019-02-17T05:07:45.709Z,55.60
2019-02-17T05:10:17.113Z,55.60
2019-02-17T05:12:48.285Z,55.70
2019-02-17T05:15:25.328Z,55.70
2019-02-17T05:18:00.263Z,55.80
2019-02-17T05:20:31.126Z,55.80
2019-02-17T05:23:04.942Z,55.90
2019-02-17T05:25:35.952Z,56.00
2019-02-17T05:28:07.233Z,55.90
2019-02-17T05:30:38.168Z,56.00
2019-02-17T05:33:09.647Z,56.10
2019-02-17T05:35:45.365Z,56.10
2019-02-17T05:38:19.985Z,56.20
2019-02-17T05:40:53.035Z,56.30
2019-02-17T05:43:26.140Z,56.40
2019-02-17T05:45:58.753Z,56.40
2019-02-17T05:48:30.530Z,56.40
2019-02-17T05:51:05.017Z,56.40
2019-02-17T05:53:35.998Z,56.40
2019-02-17T05:56:07.029Z,56.40
2019-02-17T05:58:37.860Z,56.40
2019-02-17T06:01:09.201Z,56.50
2019-02-17T06:03:40.352Z,56.50
2019-02-17T06:06:11.384Z,56.60
2019-02-17T06:08:42.159Z,56.60
2019-02-17T06:11:13.169Z,56.70
2019-02-17T06:13:44.426Z,56.70
2019-02-17T06:16:15.488Z,56.80
2019-02-17T06:18:47.111Z,56.90
2019-02-17T06:21:18.181Z,57.00
2019-02-17T06:23:55.782Z,57.00
2019-02-17T06:26:26.907Z,57.10
2019-02-17T06:29:00.378Z,57.10
2019-02-17T06:31:32.249Z,57.10
2019-02-17T06:34:04.501Z,57.20
2019-02-17T06:36:44.361Z,57.30
2019-02-17T06:39:20.247Z,57.30
2019-02-17T06:41:51.247Z,57.40
2019-02-17T06:44:23.243Z,57.30
2019-02-17T06:47:00.824Z,57.30
2019-02-17T06:49:33.246Z,57.30
2019-02-17T06:52:07.753Z,57.30
2019-02-17T06:54:45.314Z,57.40
2019-02-17T06:57:22.288Z,57.40
2019-02-17T07:00:26.845Z,57.50
2019-02-17T07:03:00.713Z,57.50
2019-02-17T07:05:50.433Z,57.70
2019-02-17T07:08:21.533Z,57.50
2019-02-17T07:10:52.366Z,57.70
2019-02-17T07:13:23.770Z,57.70
2019-02-17T07:15:54.751Z,57.70
2019-02-17T07:18:27.371Z,57.70
2019-02-17T07:20:58.428Z,57.70
2019-02-17T07:23:33.250Z,57.80
2019-02-17T07:26:04.586Z,57.80
2019-02-17T07:28:39.113Z,57.90
2019-02-17T07:31:10.361Z,57.90
2019-02-17T07:33:46.270Z,57.90
2019-02-17T07:36:21.981Z,57.90
2019-02-17T07:38:51.500Z,57.90
2019-02-17T07:41:25.310Z,57.80
2019-02-17T07:43:56.588Z,57.80
2019-02-17T07:46:27.607Z,57.80
2019-02-17T07:49:05.778Z,57.80
2019-02-17T07:51:40.748Z,57.80
2019-02-17T07:54:14.916Z,57.80
2019-02-17T07:56:45.862Z,57.70
2019-02-17T07:59:18.848Z,57.70
2019-02-17T08:01:52.111Z,57.70
2019-02-17T08:04:44.203Z,57.70
2019-02-17T08:07:15.269Z,57.70
2019-02-17T08:09:50.307Z,57.50
2019-02-17T08:12:24.834Z,57.40
2019-02-17T08:15:08.725Z,57.30
2019-02-17T08:17:40.216Z,57.10
2019-02-17T08:20:11.601Z,56.90
2019-02-17T08:22:43.984Z,56.80
2019-02-17T08:25:21.709Z,56.70
2019-02-17T08:27:55.375Z,56.60
2019-02-17T08:30:56.341Z,56.50
2019-02-17T08:33:31.386Z,56.30
2019-02-17T08:36:10.233Z,56.20
2019-02-17T08:38:51.819Z,56.10
2019-02-17T08:41:26.845Z,55.90
2019-02-17T08:44:06.788Z,55.70
2019-02-17T08:46:38.270Z,55.60
2019-02-17T08:49:10.483Z,55.40
2019-02-17T08:51:50.717Z,55.40
2019-02-17T08:54:23.611Z,55.70
2019-02-17T08:56:56.265Z,55.20
2019-02-17T08:59:30.036Z,54.70
2019-02-17T09:02:05.987Z,54.20
2019-02-17T09:07:46.339Z,53.90
2019-02-17T09:10:20.017Z,53.90
2019-02-17T09:13:01.999Z,53.60
2019-02-17T09:15:42.224Z,53.50
2019-02-17T09:18:19.426Z,53.40
2019-02-17T09:20:50.447Z,53.70
2019-02-17T09:23:22.532Z,53.30
2019-02-17T09:26:24.286Z,54.00
2019-02-17T09:28:26.722Z,52.30
2019-02-17T09:30:59.141Z,51.50
2019-02-17T09:33:33.411Z,51.40
2019-02-17T09:36:07.993Z,51.40
2019-02-17T09:38:44.124Z,51.10
2019-02-17T09:41:20.855Z,51.40
2019-02-17T09:43:53.243Z,50.80
2019-02-17T09:46:34.320Z,50.70
2019-02-17T09:49:06.880Z,50.60
2019-02-17T09:51:37.884Z,50.50
2019-02-17T09:54:12.664Z,50.20
2019-02-17T09:56:44.216Z,50.20
2019-02-17T09:59:34.274Z,50.10
2019-02-17T10:02:26.257Z,49.80
2019-02-17T10:04:52.687Z,49.50
2019-02-17T10:07:42.487Z,49.50
2019-02-17T10:10:20.096Z,49.60
2019-02-17T10:12:56.481Z,49.40
2019-02-17T10:15:32.685Z,49.30
2019-02-17T10:18:09.550Z,49.10
2019-02-17T10:20:49.933Z,49.00
2019-02-17T10:23:37.719Z,49.00
2019-02-17T10:26:10.895Z,48.80
2019-02-17T10:29:07.904Z,48.70
2019-02-17T10:31:39.725Z,48.70
2019-02-17T10:34:28.469Z,48.70
2019-02-17T10:37:01.153Z,48.60
2019-02-17T10:40:05.718Z,48.60
2019-02-17T10:42:48.865Z,48.30
2019-02-17T10:45:27.810Z,48.40
2019-02-17T10:48:03.121Z,48.20
2019-02-17T10:50:37.013Z,48.20
2019-02-17T10:53:13.572Z,48.10
2019-02-17T10:55:44.872Z,48.10
2019-02-17T10:58:27.977Z,48.10
2019-02-17T11:00:59.090Z,48.10
2019-02-17T11:03:40.078Z,48.00
2019-02-17T11:06:15.938Z,47.90
2019-02-17T11:08:55.385Z,47.80
2019-02-17T11:11:41.470Z,47.70
2019-02-17T11:14:22.483Z,47.70
2019-02-17T11:17:18.305Z,47.60
2019-02-17T11:19:54.760Z,47.60
2019-02-17T11:22:41.854Z,47.40
2019-02-17T11:25:15.613Z,47.20
2019-02-17T11:27:59.334Z,47.10
2019-02-17T11:30:31.084Z,47.20
2019-02-17T11:33:13.759Z,47.10
2019-02-17T11:36:12.195Z,47.00
2019-02-17T11:39:01.138Z,46.90
2019-02-17T11:41:47.337Z,47.00
2019-02-17T11:44:21.794Z,46.90
2019-02-17T11:47:02.078Z,46.80
2019-02-17T11:49:29.866Z,46.70
2019-02-17T11:52:12.343Z,46.70
2019-02-17T11:54:54.318Z,46.50
2019-02-17T11:57:35.134Z,46.30
2019-02-17T12:00:16.392Z,46.30
2019-02-17T12:02:53.390Z,46.10
2019-02-17T12:05:24.424Z,46.00
2019-02-17T12:07:59.127Z,46.00
2019-02-17T12:10:53.391Z,45.80
2019-02-17T12:13:24.616Z,45.70
2019-02-17T12:16:05.488Z,45.40
2019-02-17T12:18:45.396Z,45.40
2019-02-17T12:22:13.942Z,45.50
2019-02-17T12:25:00.244Z,45.30
2019-02-17T12:28:06.244Z,45.10
2019-02-17T12:30:40.047Z,45.00
2019-02-17T12:33:20.587Z,45.00
2019-02-17T12:36:30.886Z,45.70
2019-02-17T12:38:52.940Z,44.70
2019-02-17T12:41:44.090Z,44.40
2019-02-17T12:44:30.372Z,44.40
2019-02-17T12:47:18.125Z,44.40
2019-02-17T12:49:52.560Z,44.30
2019-02-17T12:52:32.992Z,44.40
2019-02-17T12:55:42.878Z,44.40
2019-02-17T12:58:15.623Z,44.30
2019-02-17T13:00:48.023Z,44.30
2019-02-17T13:03:28.327Z,44.10
2019-02-17T13:05:56.249Z,44.00
2019-02-17T13:08:27.564Z,43.90
2019-02-17T13:11:05.718Z,43.70
2019-02-17T13:13:40.740Z,43.70
2019-02-17T13:16:17.083Z,43.70
2019-02-17T13:18:50.944Z,43.70
2019-02-17T13:21:22.453Z,43.40
2019-02-17T13:24:10.789Z,43.20
2019-02-17T13:26:53.620Z,43.00
2019-02-17T13:29:40.162Z,43.00
2019-02-17T13:32:13.583Z,42.90
2019-02-17T13:34:52.687Z,42.90
2019-02-17T13:37:31.446Z,42.80
2019-02-17T13:40:07.318Z,42.60
2019-02-17T13:42:49.614Z,42.50
2019-02-17T13:45:30.423Z,42.30
2019-02-17T13:49:03.987Z,42.10
2019-02-17T13:52:08.190Z,41.90
2019-02-17T13:54:00.702Z,42.00
2019-02-17T13:56:39.730Z,42.00
2019-02-17T13:59:19.753Z,42.10
2019-02-17T14:01:57.423Z,42.10
2019-02-17T14:04:32.233Z,42.10
2019-02-17T14:07:28.570Z,42.00
2019-02-17T14:10:29.621Z,42.00
2019-02-17T14:13:08.058Z,42.20
2019-02-17T14:15:42.384Z,42.30
2019-02-17T14:18:36.950Z,42.40
2019-02-17T14:21:14.227Z,42.30
2019-02-17T14:23:45.341Z,42.30
2019-02-17T14:26:36.862Z,42.30
2019-02-17T14:29:10.751Z,42.30
2019-02-17T14:31:42.845Z,42.20
2019-02-17T14:34:17.360Z,42.20
2019-02-17T14:36:58.569Z,42.20
2019-02-17T14:39:30.224Z,42.20
2019-02-17T14:42:07.699Z,42.20
2019-02-17T14:44:51.752Z,42.10
2019-02-17T14:47:30.074Z,42.10
2019-02-17T14:50:06.412Z,42.10
2019-02-17T14:52:43.608Z,42.10
2019-02-17T14:55:14.656Z,42.10
2019-02-17T14:58:34.516Z,42.10
2019-02-17T15:00:45.853Z,42.10
2019-02-17T15:03:25.981Z,42.20
2019-02-17T15:06:19.599Z,42.30
2019-02-17T15:11:42.573Z,42.50
2019-02-17T15:14:19.916Z,42.50
2019-02-17T15:16:57.312Z,42.50
2019-02-17T15:19:33.364Z,42.50
2019-02-17T15:22:12.287Z,42.60
2019-02-17T15:24:45.374Z,42.70
2019-02-17T15:27:18.339Z,42.70
2019-02-17T15:29:52.148Z,42.80
2019-02-17T15:33:25.282Z,42.80
2019-02-17T15:35:22.266Z,43.00
2019-02-17T15:38:11.099Z,43.30
2019-02-17T15:40:44.721Z,43.20
2019-02-17T15:44:16.007Z,43.30
2019-02-17T15:46:29.868Z,43.40
2019-02-17T15:49:34.845Z,43.70
2019-02-17T15:53:02.980Z,44.10
2019-02-17T15:55:19.243Z,44.40
2019-02-17T15:58:00.008Z,44.60
2019-02-17T16:00:33.961Z,45.10
2019-02-17T16:03:16.757Z,45.40
2019-02-17T16:06:09.454Z,45.50
2019-02-17T16:08:52.634Z,45.70
2019-02-17T16:11:24.677Z,45.90
2019-02-17T16:14:01.661Z,46.00
2019-02-17T16:16:32.841Z,46.20
2019-02-17T16:19:07.960Z,46.20
2019-02-17T16:21:41.917Z,46.50
2019-02-17T16:24:25.375Z,46.50
2019-02-17T16:27:17.119Z,46.70
2019-02-17T16:29:59.279Z,46.80
2019-02-17T16:32:35.706Z,46.90
2019-02-17T16:35:16.364Z,47.00
2019-02-17T16:37:52.530Z,47.10
2019-02-17T16:40:37.382Z,47.30
2019-02-17T16:43:24.179Z,47.30
2019-02-17T16:46:28.525Z,47.60
2019-02-17T16:49:05.930Z,47.60
2019-02-17T16:51:41.002Z,47.70
2019-02-17T16:54:14.202Z,47.70
2019-02-17T16:56:59.358Z,48.00
2019-02-17T16:59:48.350Z,47.90
2019-02-17T17:02:30.802Z,48.10
2019-02-17T17:05:37.474Z,48.10
2019-02-17T17:08:14.907Z,48.20
2019-02-17T17:10:54.900Z,48.30
2019-02-17T17:16:39.112Z,48.30
2019-02-17T17:22:21.516Z,48.40
2019-02-17T17:26:16.619Z,48.50
2019-02-17T17:28:18.642Z,48.70
2019-02-17T17:35:08.315Z,48.70
2019-02-17T17:37:56.901Z,48.70
2019-02-17T17:40:38.771Z,48.70
2019-02-17T17:43:26.349Z,48.90
2019-02-17T17:46:19.040Z,48.90
2019-02-17T17:49:08.607Z,49.00
2019-02-17T17:52:10.738Z,49.00
2019-02-17T17:54:57.076Z,49.00
2019-02-17T17:57:40.250Z,49.10
2019-02-17T18:00:31.094Z,49.20
2019-02-17T18:03:00.353Z,49.20
2019-02-17T18:05:33.971Z,49.30
2019-02-17T18:08:52.416Z,49.40
2019-02-17T18:11:33.113Z,49.40
2019-02-17T18:14:12.981Z,49.50
2019-02-17T18:17:17.936Z,49.60
2019-02-17T18:20:25.495Z,49.60
2019-02-17T18:23:02.078Z,49.60
2019-02-17T18:25:41.319Z,49.60
2019-02-17T18:28:31.390Z,49.70
2019-02-17T18:31:10.016Z,49.80
2019-02-17T18:33:58.897Z,49.80
2019-02-17T18:37:05.958Z,49.70
2019-02-17T18:39:43.625Z,49.70
2019-02-17T18:42:23.535Z,49.50
2019-02-17T18:45:09.426Z,49.20
2019-02-17T18:48:24.016Z,49.00
2019-02-17T18:51:28.675Z,48.80
2019-02-17T18:54:07.664Z,48.50
2019-02-17T18:56:40.290Z,48.30
2019-02-17T18:59:28.904Z,48.10
2019-02-17T19:02:07.565Z,47.70
2019-02-17T19:05:48.905Z,47.60
2019-02-17T19:08:11.384Z,47.20
2019-02-17T19:11:06.011Z,47.10
2019-02-17T19:17:08.098Z,47.00
2019-02-17T19:20:03.557Z,46.90
2019-02-17T19:22:42.737Z,46.70
2019-02-17T19:25:41.510Z,46.60
2019-02-17T19:28:17.211Z,46.50
2019-02-17T19:30:49.752Z,46.30
2019-02-17T19:34:01.867Z,46.30
2019-02-17T19:36:44.185Z,46.10
2019-02-17T19:39:23.775Z,46.00
2019-02-17T19:41:59.037Z,45.90
2019-02-17T19:44:36.831Z,45.80
2019-02-17T19:47:14.199Z,45.70
2019-02-17T19:49:54.485Z,45.70
2019-02-17T19:52:49.607Z,45.60
2019-02-17T19:55:26.271Z,45.60
2019-02-17T19:57:57.367Z,45.50
2019-02-17T20:00:44.562Z,45.40
2019-02-17T20:03:28.188Z,45.30
2019-02-17T20:06:01.346Z,45.30
2019-02-17T20:08:38.676Z,45.30
2019-02-17T20:11:13.027Z,45.20
2019-02-17T20:13:52.905Z,45.20
2019-02-17T20:16:23.148Z,45.20
2019-02-17T20:18:53.924Z,45.30
2019-02-17T20:21:42.687Z,45.90
2019-02-17T20:24:18.489Z,46.00
2019-02-17T20:27:02.036Z,45.30
2019-02-17T20:29:36.854Z,45.30
2019-02-17T20:32:08.408Z,45.40
2019-02-17T20:34:42.277Z,45.40
2019-02-17T20:37:17.689Z,45.20
2019-02-17T20:40:30.514Z,45.50
2019-02-17T20:43:08.091Z,45.50
2019-02-17T20:45:49.811Z,45.50
2019-02-17T20:48:27.836Z,45.60
2019-02-17T20:51:31.851Z,45.80
2019-02-17T20:54:13.662Z,45.90
2019-02-17T20:56:58.185Z,45.90
2019-02-17T20:59:31.338Z,45.90
2019-02-17T21:02:14.301Z,45.90
2019-02-17T21:04:54.479Z,46.00
2019-02-17T21:07:31.089Z,46.20
2019-02-17T21:10:05.924Z,46.20
2019-02-17T21:12:50.388Z,46.30
2019-02-17T21:15:45.490Z,46.50
2019-02-17T21:18:18.135Z,46.60
2019-02-17T21:20:55.449Z,46.70
2019-02-17T21:24:10.480Z,46.80
2019-02-17T21:26:44.561Z,46.90
2019-02-17T21:29:18.981Z,46.90
2019-02-17T21:31:54.990Z,47.00
2019-02-17T21:34:48.452Z,47.10
2019-02-17T21:37:31.564Z,47.10
2019-02-17T21:40:08.241Z,47.20
2019-02-17T21:42:42.501Z,47.30
2019-02-17T21:45:32.655Z,47.40
2019-02-17T21:48:17.597Z,47.50
2019-02-17T21:50:58.468Z,48.40
2019-02-17T21:53:31.382Z,48.50
2019-02-17T21:56:10.923Z,48.50
2019-02-17T21:58:42.249Z,48.60
2019-02-17T22:01:23.989Z,48.70
2019-02-17T22:04:05.124Z,48.70
2019-02-17T22:06:43.497Z,48.60
2019-02-17T22:09:40.594Z,48.70
2019-02-17T22:13:05.575Z,48.70
2019-02-17T22:15:13.166Z,48.80
2019-02-17T22:18:18.048Z,48.80
2019-02-17T22:20:52.938Z,48.90
2019-02-17T22:23:27.889Z,48.90
2019-02-17T22:26:00.051Z,48.90
2019-02-17T22:28:49.504Z,48.90
2019-02-17T22:31:32.044Z,48.90
2019-02-17T22:34:10.589Z,49.00
2019-02-17T22:36:49.366Z,48.90
2019-02-17T22:39:31.181Z,49.00
2019-02-17T22:42:04.164Z,49.10
2019-02-17T22:44:35.288Z,49.10
2019-02-17T22:47:14.490Z,49.10
2019-02-17T22:49:52.454Z,49.10
2019-02-17T22:52:33.675Z,49.20
2019-02-17T22:55:10.221Z,49.20
2019-02-17T22:58:08.539Z,49.20
2019-02-17T23:01:12.744Z,49.10
2019-02-17T23:04:09.023Z,49.20
2019-02-17T23:07:08.902Z,49.20
2019-02-17T23:10:09.220Z,49.20
2019-02-17T23:12:49.731Z,49.20
2019-02-17T23:15:25.380Z,49.20
2019-02-17T23:18:04.985Z,49.40
2019-02-17T23:20:40.106Z,49.40
2019-02-17T23:23:16.276Z,49.40
2019-02-17T23:25:48.036Z,49.50
2019-02-17T23:28:30.564Z,49.50
2019-02-17T23:30:56.524Z,49.50
2019-02-17T23:33:35.390Z,49.50
2019-02-17T23:36:13.101Z,49.50
2019-02-17T23:38:47.839Z,49.60
2019-02-17T23:41:23.422Z,49.60
2019-02-17T23:43:54.846Z,49.70
2019-02-17T23:46:36.351Z,49.70
2019-02-17T23:49:32.455Z,49.80
2019-02-17T23:51:50.899Z,49.70
2019-02-17T23:54:26.671Z,49.70
2019-02-17T23:57:22.515Z,49.80
2019-02-17T23:59:44.812Z,49.70
